createdAt,value
2023-04-27T00:01:13.199Z,2.53
2023-04-27T00:06:15.124Z,2.22
2023-04-27T00:11:17.192Z,2.22
2023-04-27T00:16:19.301Z,1.92
2023-04-27T00:21:21.640Z,2.47
2023-04-27T00:26:23.969Z,2.10
2023-04-27T00:31:28.301Z,2.22
2023-04-27T00:36:35.137Z,2.42
2023-04-27T00:41:39.723Z,2.00
2023-04-27T00:46:41.655Z,2.08
2023-04-27T00:51:43.532Z,2.47
2023-04-27T00:56:48.330Z,2.80
2023-04-27T01:01:50.849Z,2.20
2023-04-27T01:06:54.753Z,1.88
2023-04-27T01:11:59.246Z,2.42
2023-04-27T01:17:02.752Z,2.20
2023-04-27T01:22:04.783Z,2.20
2023-04-27T01:27:06.797Z,2.33
2023-04-27T01:32:08.716Z,2.45
2023-04-27T01:37:11.125Z,2.30
2023-04-27T01:42:12.980Z,2.13
2023-04-27T01:47:18.243Z,2.20
2023-04-27T01:52:20.478Z,2.35
2023-04-27T01:57:22.530Z,2.25
2023-04-27T02:02:24.708Z,2.28
2023-04-27T02:07:27.439Z,2.53
2023-04-27T02:12:31.310Z,2.75
2023-04-27T02:17:35.153Z,3.05
2023-04-27T02:22:37.775Z,2.72
2023-04-27T02:27:41.633Z,2.67
2023-04-27T02:32:44.305Z,2.40
2023-04-27T02:37:46.706Z,2.55
2023-04-27T02:42:51.153Z,2.90
2023-04-27T02:47:53.298Z,2.00
2023-04-27T02:52:55.617Z,2.40
2023-04-27T02:57:57.808Z,1.70
2023-04-27T03:02:59.906Z,2.55
2023-04-27T03:08:01.975Z,2.42
2023-04-27T03:13:04.169Z,2.38
2023-04-27T03:18:06.651Z,2.30
2023-04-27T03:23:09.329Z,2.22
2023-04-27T03:28:11.430Z,2.20
2023-04-27T03:33:14.575Z,2.13
2023-04-27T03:38:16.610Z,2.42
2023-04-27T03:43:20.334Z,2.92
2023-04-27T03:48:22.676Z,2.30
2023-04-27T03:53:27.266Z,2.03
2023-04-27T03:58:29.633Z,2.63
2023-04-27T04:03:48.497Z,2.35
2023-04-27T04:08:50.695Z,1.88
2023-04-27T04:13:53.203Z,2.40
2023-04-27T04:18:55.269Z,2.75
2023-04-27T04:23:57.800Z,2.00
2023-04-27T04:29:00.140Z,2.53
2023-04-27T04:34:02.482Z,2.63
2023-04-27T04:39:05.488Z,2.58
2023-04-27T04:44:08.134Z,2.15
2023-04-27T04:49:10.142Z,2.38
2023-04-27T04:54:12.905Z,1.92
2023-04-27T04:59:14.937Z,2.13
2023-04-27T05:04:18.877Z,2.17
2023-04-27T05:09:21.112Z,1.60
2023-04-27T05:14:22.957Z,2.25
2023-04-27T05:19:25.519Z,2.35
2023-04-27T05:24:27.778Z,2.15
2023-04-27T05:29:30.050Z,2.00
2023-04-27T05:34:31.892Z,2.13
2023-04-27T05:39:33.847Z,2.20
2023-04-27T05:44:35.918Z,2.22
2023-04-27T05:49:37.865Z,2.00
2023-04-27T05:54:39.798Z,2.08
2023-04-27T05:59:42.939Z,2.90
2023-04-27T06:04:44.782Z,2.10
2023-04-27T06:09:46.668Z,2.20
2023-04-27T06:14:48.770Z,2.75
2023-04-27T06:19:51.992Z,2.08
2023-04-27T06:24:54.303Z,2.10
2023-04-27T06:29:56.324Z,2.10
2023-04-27T06:34:58.413Z,2.40
2023-04-27T06:40:00.519Z,2.25
2023-04-27T06:45:07.389Z,2.50
2023-04-27T06:50:09.879Z,2.38
2023-04-27T06:55:11.995Z,2.25
2023-04-27T07:00:14.678Z,2.33
2023-04-27T07:05:16.691Z,2.20
2023-04-27T07:10:18.779Z,2.83
2023-04-27T07:15:24.129Z,3.17
2023-04-27T07:20:27.155Z,2.97
2023-04-27T07:25:29.140Z,4.35
2023-04-27T07:30:31.260Z,3.10
2023-04-27T07:35:33.776Z,3.00
2023-04-27T07:40:36.526Z,2.40
2023-04-27T07:45:40.133Z,2.42
2023-04-27T07:50:42.353Z,3.90
2023-04-27T07:55:44.765Z,2.75
2023-04-27T08:00:47.533Z,2.50
2023-04-27T08:05:49.728Z,4.47
2023-04-27T08:10:52.008Z,2.65
2023-04-27T08:15:58.560Z,2.58
2023-04-27T08:21:00.487Z,2.60
2023-04-27T08:26:03.621Z,2.60
2023-04-27T08:31:05.802Z,3.00
2023-04-27T08:36:08.010Z,3.10
2023-04-27T08:41:20.934Z,2.40
2023-04-27T08:46:27.309Z,2.47
2023-04-27T08:51:29.949Z,2.38
2023-04-27T08:56:32.083Z,2.15
2023-04-27T09:01:34.252Z,2.60
2023-04-27T09:06:36.432Z,2.45
2023-04-27T09:11:39.814Z,2.25
2023-04-27T09:16:43.171Z,2.78
2023-04-27T09:21:48.348Z,2.70
2023-04-27T09:26:50.556Z,2.47
2023-04-27T09:31:52.736Z,3.17
2023-04-27T09:36:54.753Z,2.90
2023-04-27T09:41:57.116Z,2.30
2023-04-27T09:47:00.979Z,3.25
2023-04-27T09:52:02.987Z,3.47
2023-04-27T09:57:36.313Z,2.80
2023-04-27T10:03:02.665Z,3.08
2023-04-27T10:08:06.438Z,2.85
2023-04-27T10:13:08.309Z,2.97
2023-04-27T10:18:11.709Z,2.83
2023-04-27T10:23:26.246Z,2.67
2023-04-27T10:28:39.332Z,3.03
2023-04-27T10:33:44.508Z,2.88
2023-04-27T10:38:46.975Z,2.90
2023-04-27T10:43:49.128Z,3.08
2023-04-27T10:48:51.772Z,2.97
2023-04-27T10:53:54.023Z,4.18
2023-04-27T10:58:56.355Z,3.30
2023-04-27T11:04:00.174Z,3.50
2023-04-27T11:09:02.266Z,3.13
2023-04-27T11:14:04.296Z,3.60
2023-04-27T11:19:07.058Z,3.20
2023-04-27T11:24:10.986Z,3.50
2023-04-27T11:29:14.431Z,3.63
2023-04-27T11:34:22.739Z,3.30
2023-04-27T11:39:28.207Z,3.35
2023-04-27T11:44:30.207Z,3.97
2023-04-27T11:49:32.221Z,3.78
2023-04-27T11:54:34.082Z,2.70
2023-04-27T11:59:36.246Z,3.80
2023-04-27T12:04:38.501Z,4.07
2023-04-27T12:09:40.894Z,3.38
2023-04-27T12:14:42.797Z,3.65
2023-04-27T12:19:44.854Z,3.72
2023-04-27T12:24:46.803Z,3.35
2023-04-27T12:29:48.826Z,4.22
2023-04-27T12:34:50.982Z,3.60
2023-04-27T12:39:52.899Z,3.63
2023-04-27T12:44:54.934Z,3.70
2023-04-27T12:49:56.895Z,3.55
2023-04-27T12:54:59.489Z,3.63
2023-04-27T13:00:02.076Z,4.28
2023-04-27T13:05:04.882Z,4.07
2023-04-27T13:10:11.534Z,3.50
2023-04-27T13:15:13.484Z,3.60
2023-04-27T13:20:15.680Z,4.50
2023-04-27T13:25:17.801Z,4.35
2023-04-27T13:30:19.952Z,4.07
2023-04-27T13:35:22.036Z,4.30
2023-04-27T13:40:24.064Z,4.38
2023-04-27T13:45:26.185Z,3.72
2023-04-27T13:50:28.358Z,3.83
2023-04-27T13:55:30.824Z,3.67
2023-04-27T14:00:34.756Z,4.03
2023-04-27T14:05:36.918Z,3.67
2023-04-27T14:10:39.306Z,3.83
2023-04-27T14:15:42.238Z,3.75
2023-04-27T14:20:44.834Z,3.80
2023-04-27T14:25:47.155Z,4.20
2023-04-27T14:30:49.115Z,5.13
2023-04-27T14:35:51.364Z,4.28
2023-04-27T14:40:53.339Z,4.32
2023-04-27T14:46:02.068Z,4.28
2023-04-27T14:51:15.359Z,4.07
2023-04-27T14:56:17.900Z,4.65
2023-04-27T15:01:20.373Z,4.22
2023-04-27T15:06:22.492Z,4.93
2023-04-27T15:11:24.403Z,5.00
2023-04-27T15:16:26.476Z,4.88
2023-04-27T15:21:28.495Z,5.10
2023-04-27T15:26:30.614Z,4.40
2023-04-27T15:31:32.580Z,4.03
2023-04-27T15:36:34.616Z,3.58
2023-04-27T15:41:36.769Z,4.57
2023-04-27T15:46:38.750Z,4.25
2023-04-27T15:51:41.023Z,4.25
2023-04-27T15:56:43.184Z,4.03
2023-04-27T16:01:45.157Z,4.40
2023-04-27T16:06:47.082Z,3.97
2023-04-27T16:11:49.083Z,4.28
2023-04-27T16:16:51.605Z,3.88
2023-04-27T16:21:54.001Z,3.47
2023-04-27T16:26:56.135Z,3.67
2023-04-27T16:31:58.217Z,4.53
2023-04-27T16:37:00.365Z,4.90
2023-04-27T16:42:02.718Z,4.88
2023-04-27T16:47:04.605Z,4.03
2023-04-27T16:52:06.470Z,4.25
2023-04-27T16:57:08.469Z,4.18
2023-04-27T17:02:23.865Z,5.20
2023-04-27T17:07:32.866Z,4.18
2023-04-27T17:12:38.520Z,4.30
2023-04-27T17:17:41.461Z,4.57
2023-04-27T17:22:43.546Z,4.70
2023-04-27T17:27:45.716Z,4.35
2023-04-27T17:32:47.698Z,4.80
2023-04-27T17:37:49.705Z,4.57
2023-04-27T17:42:51.693Z,4.70
2023-04-27T17:47:53.623Z,4.95
2023-04-27T17:52:55.823Z,4.32
2023-04-27T17:58:00.820Z,4.43
2023-04-27T18:03:03.074Z,5.18
2023-04-27T18:08:05.405Z,4.78
2023-04-27T18:13:07.373Z,4.55
2023-04-27T18:18:10.543Z,4.97
2023-04-27T18:23:12.492Z,4.80
2023-04-27T18:28:14.469Z,5.85
2023-04-27T18:33:18.021Z,5.45
2023-04-27T18:38:19.872Z,8.32
2023-04-27T18:43:21.766Z,5.25
2023-04-27T18:48:23.788Z,4.47
2023-04-27T18:53:26.964Z,3.80
2023-04-27T18:58:29.110Z,4.20
2023-04-27T19:03:31.209Z,4.28
2023-04-27T19:08:33.225Z,4.32
2023-04-27T19:13:35.110Z,3.28
2023-04-27T19:18:37.083Z,3.97
2023-04-27T19:23:39.078Z,4.38
2023-04-27T19:28:41.385Z,4.60
2023-04-27T19:38:48.217Z,5.75
2023-04-27T19:43:50.086Z,7.13
2023-04-27T19:48:53.354Z,5.22
2023-04-27T19:53:55.325Z,6.82
2023-04-27T19:58:57.294Z,6.35
2023-04-27T20:03:59.435Z,5.63
2023-04-27T20:09:02.237Z,5.38
2023-04-27T20:14:04.586Z,5.40
2023-04-27T20:19:06.613Z,5.47
2023-04-27T20:24:08.566Z,5.07
2023-04-27T20:29:10.621Z,5.45
2023-04-27T20:34:12.837Z,5.63
2023-04-27T20:39:15.264Z,5.95
2023-04-27T20:44:18.498Z,6.03
2023-04-27T20:49:31.941Z,6.35
2023-04-27T20:54:37.184Z,5.82
2023-04-27T20:59:39.422Z,5.55
2023-04-27T21:04:41.459Z,6.57
2023-04-27T21:09:43.354Z,6.72
2023-04-27T21:14:45.458Z,6.60
2023-04-27T21:19:47.383Z,6.68
2023-04-27T21:24:50.359Z,6.35
2023-04-27T21:29:52.488Z,7.72
2023-04-27T21:34:54.518Z,10.20
2023-04-27T21:39:56.696Z,9.25
2023-04-27T21:44:58.754Z,15.07
2023-04-27T21:50:00.609Z,9.43
2023-04-27T21:55:03.171Z,8.02
2023-04-27T22:00:14.015Z,6.50
2023-04-27T22:05:22.240Z,6.75
2023-04-27T22:10:24.206Z,7.07
2023-04-27T22:15:26.477Z,7.00
2023-04-27T22:20:28.389Z,6.82
2023-04-27T22:25:30.688Z,6.40
2023-04-27T22:30:32.671Z,6.97
2023-04-27T22:35:36.503Z,5.70
2023-04-27T22:40:38.436Z,6.30
2023-04-27T22:45:40.535Z,5.05
2023-04-27T22:50:42.459Z,5.35
2023-04-27T22:55:44.376Z,5.07
2023-04-27T23:00:46.453Z,5.20
2023-04-27T23:05:48.470Z,4.97
2023-04-27T23:10:55.096Z,5.40
2023-04-27T23:15:57.264Z,5.30
2023-04-27T23:20:59.170Z,6.20
2023-04-27T23:26:01.026Z,5.78
2023-04-27T23:31:04.159Z,5.13
2023-04-27T23:36:06.753Z,4.50
2023-04-27T23:41:08.784Z,5.47
2023-04-27T23:46:11.029Z,5.38
2023-04-27T23:51:13.069Z,5.05
2023-04-27T23:56:19.300Z,5.53
